createdAt,value
2019-02-25T00:02:34.935Z,1.33
2019-02-25T00:05:10.406Z,2.57
2019-02-25T00:07:46.064Z,2.10
2019-02-25T00:10:29.155Z,1.20
2019-02-25T00:13:03.896Z,1.73
2019-02-25T00:15:39.287Z,0.50
2019-02-25T00:18:15.918Z,3.60
2019-02-25T00:20:51.283Z,1.63
2019-02-25T00:23:28.465Z,1.90
2019-02-25T00:26:04.804Z,2.13
2019-02-25T00:28:43.640Z,1.20
2019-02-25T00:31:19.780Z,2.20
2019-02-25T00:33:58.432Z,0.97
2019-02-25T00:36:33.164Z,1.37
2019-02-25T00:39:14.418Z,1.67
2019-02-25T00:41:52.995Z,1.43
2019-02-25T00:44:33.516Z,1.67
2019-02-25T00:47:10.985Z,1.13
2019-02-25T00:49:47.118Z,1.00
2019-02-25T00:52:23.434Z,1.23
2019-02-25T00:55:00.100Z,3.67
2019-02-25T00:57:37.756Z,2.40
2019-02-25T01:00:18.990Z,0.80
2019-02-25T01:02:59.329Z,1.00
2019-02-25T01:05:34.886Z,1.67
2019-02-25T01:08:11.101Z,1.63
2019-02-25T01:10:47.976Z,1.43
2019-02-25T01:13:27.589Z,1.50
2019-02-25T01:16:04.893Z,2.40
2019-02-25T01:18:46.861Z,1.07
2019-02-25T01:21:23.957Z,1.50
2019-02-25T01:24:01.854Z,0.60
2019-02-25T01:26:43.248Z,1.30
2019-02-25T01:29:21.092Z,0.93
2019-02-25T01:32:01.132Z,0.87
2019-02-25T01:34:38.832Z,1.40
2019-02-25T01:37:23.494Z,1.83
2019-02-25T01:40:03.019Z,1.30
2019-02-25T01:42:42.511Z,1.83
2019-02-25T01:45:21.139Z,1.17
2019-02-25T01:48:03.291Z,0.80
2019-02-25T01:50:41.259Z,1.73
2019-02-25T01:53:21.780Z,0.87
2019-02-25T01:56:01.214Z,2.23
2019-02-25T01:58:37.367Z,2.90
2019-02-25T02:01:20.665Z,1.47
2019-02-25T02:03:55.620Z,1.73
2019-02-25T02:06:36.593Z,1.00
2019-02-25T02:09:12.846Z,1.10
2019-02-25T02:11:48.978Z,0.83
2019-02-25T02:14:29.067Z,1.37
2019-02-25T02:17:04.235Z,2.13
2019-02-25T02:19:49.983Z,1.53
2019-02-25T02:22:40.076Z,1.73
2019-02-25T02:25:16.619Z,2.17
2019-02-25T02:27:55.498Z,1.47
2019-02-25T02:30:31.068Z,1.67
2019-02-25T02:33:08.023Z,1.27
2019-02-25T02:35:44.065Z,1.00
2019-02-25T02:38:28.414Z,1.63
2019-02-25T02:41:07.514Z,1.63
2019-02-25T02:43:42.355Z,2.07
2019-02-25T02:47:05.582Z,2.57
2019-02-25T02:49:45.544Z,2.43
2019-02-25T02:52:27.551Z,3.83
2019-02-25T02:55:15.370Z,3.80
2019-02-25T02:58:06.053Z,4.10
2019-02-25T03:00:56.228Z,3.90
2019-02-25T03:03:34.072Z,3.97
2019-02-25T03:06:11.698Z,3.70
2019-02-25T03:08:49.799Z,6.97
2019-02-25T03:11:26.631Z,5.43
2019-02-25T03:14:19.060Z,4.27
2019-02-25T03:17:03.275Z,4.43
2019-02-25T03:20:02.651Z,3.83
2019-02-25T03:22:40.737Z,3.77
2019-02-25T03:25:22.259Z,3.77
2019-02-25T03:27:58.764Z,8.30
2019-02-25T03:30:35.289Z,4.73
2019-02-25T03:33:18.368Z,3.93
2019-02-25T03:35:57.172Z,4.57
2019-02-25T03:38:35.677Z,6.20
2019-02-25T03:41:17.486Z,4.57
2019-02-25T03:43:53.735Z,5.03
2019-02-25T03:46:35.057Z,4.37
2019-02-25T03:49:13.831Z,4.20
2019-02-25T03:51:49.944Z,4.97
2019-02-25T03:54:31.670Z,7.27
2019-02-25T03:57:10.895Z,12.77
2019-02-25T03:59:47.123Z,6.13
2019-02-25T04:02:23.602Z,6.70
2019-02-25T04:04:59.319Z,5.50
2019-02-25T04:07:37.115Z,5.90
2019-02-25T04:10:28.076Z,3.80
2019-02-25T04:13:07.438Z,4.07
2019-02-25T04:15:46.288Z,4.60
2019-02-25T04:18:20.913Z,2.47
2019-02-25T04:20:58.688Z,5.67
2019-02-25T04:23:34.438Z,5.30
2019-02-25T04:26:13.427Z,5.67
2019-02-25T04:28:51.351Z,4.73
2019-02-25T04:31:29.834Z,8.27
2019-02-25T04:34:03.923Z,5.50
2019-02-25T04:36:39.622Z,4.97
2019-02-25T04:39:16.310Z,6.23
2019-02-25T04:41:51.528Z,7.40
2019-02-25T04:44:28.839Z,7.53
2019-02-25T04:47:05.247Z,5.37
2019-02-25T04:49:42.704Z,5.83
2019-02-25T04:52:18.350Z,4.60
2019-02-25T04:54:56.713Z,5.77
2019-02-25T04:57:36.903Z,5.10
2019-02-25T05:00:17.309Z,6.17
2019-02-25T05:02:53.399Z,7.17
2019-02-25T05:05:29.958Z,5.00
2019-02-25T05:08:05.025Z,5.53
2019-02-25T05:10:44.940Z,5.13
2019-02-25T05:13:20.669Z,5.60
2019-02-25T05:15:57.235Z,5.93
2019-02-25T05:18:37.097Z,6.23
2019-02-25T05:21:13.932Z,5.93
2019-02-25T05:23:48.550Z,6.00
2019-02-25T05:26:26.855Z,6.63
2019-02-25T05:29:02.338Z,7.73
2019-02-25T05:31:44.820Z,7.67
2019-02-25T05:34:22.542Z,7.67
2019-02-25T05:37:03.922Z,9.03
2019-02-25T05:39:43.184Z,10.40
2019-02-25T05:42:18.694Z,9.70
2019-02-25T05:44:56.204Z,9.00
2019-02-25T05:48:11.754Z,8.03
2019-02-25T05:50:47.218Z,7.77
2019-02-25T05:53:26.926Z,7.70
2019-02-25T05:56:04.850Z,9.47
2019-02-25T05:58:46.710Z,8.17
2019-02-25T06:01:27.925Z,6.47
2019-02-25T06:04:22.343Z,8.13
2019-02-25T06:07:14.877Z,7.97
2019-02-25T06:09:58.594Z,7.93
2019-02-25T06:12:36.833Z,6.50
2019-02-25T06:16:06.014Z,6.33
2019-02-25T06:18:50.898Z,6.87
2019-02-25T06:21:36.197Z,6.30
2019-02-25T06:24:12.950Z,7.57
2019-02-25T06:26:50.403Z,7.57
2019-02-25T06:30:34.174Z,6.93
2019-02-25T06:33:14.758Z,7.67
2019-02-25T06:35:53.855Z,6.90
2019-02-25T06:38:34.160Z,5.70
2019-02-25T06:41:22.980Z,8.33
2019-02-25T06:44:25.581Z,7.17
2019-02-25T06:48:00.885Z,9.93
2019-02-25T06:50:39.935Z,7.07
2019-02-25T06:53:27.978Z,5.47
2019-02-25T06:56:03.546Z,6.87
2019-02-25T06:58:44.136Z,5.50
2019-02-25T07:01:21.546Z,5.37
2019-02-25T07:04:52.413Z,6.63
2019-02-25T07:07:57.015Z,6.43
2019-02-25T07:11:01.392Z,5.63
2019-02-25T07:14:07.657Z,5.40
2019-02-25T07:17:03.570Z,5.57
2019-02-25T07:20:08.680Z,5.20
2019-02-25T07:22:52.450Z,5.33
2019-02-25T07:25:54.489Z,4.93
2019-02-25T07:28:49.548Z,4.90
2019-02-25T07:31:47.594Z,5.83
2019-02-25T07:34:44.945Z,4.57
2019-02-25T07:42:07.639Z,4.53
2019-02-25T07:45:15.617Z,4.10
2019-02-25T07:48:27.466Z,4.90
2019-02-25T07:55:04.863Z,3.90
2019-02-25T07:58:15.687Z,4.93
2019-02-25T08:01:18.711Z,4.07
2019-02-25T08:04:17.782Z,3.63
2019-02-25T08:07:45.260Z,3.73
2019-02-25T08:10:52.349Z,3.73
2019-02-25T08:13:53.494Z,2.97
2019-02-25T08:17:10.127Z,5.33
2019-02-25T08:20:22.570Z,4.40
2019-02-25T08:23:49.522Z,4.33
2019-02-25T08:27:01.823Z,3.33
2019-02-25T08:29:59.763Z,6.07
2019-02-25T08:33:16.048Z,14.80
2019-02-25T08:37:02.641Z,5.77
2019-02-25T08:39:50.812Z,3.10
2019-02-25T08:42:45.840Z,3.20
2019-02-25T08:45:38.857Z,3.97
2019-02-25T08:48:59.715Z,3.17
2019-02-25T08:51:44.496Z,4.27
2019-02-25T08:54:29.803Z,4.17
2019-02-25T08:57:11.267Z,3.47
2019-02-25T08:59:57.475Z,3.67
2019-02-25T09:02:37.408Z,5.40
2019-02-25T09:05:16.944Z,4.57
2019-02-25T09:08:00.111Z,4.40
2019-02-25T09:10:44.489Z,4.40
2019-02-25T09:13:30.552Z,5.07
2019-02-25T09:16:08.061Z,5.10
2019-02-25T09:18:47.075Z,8.73
2019-02-25T09:21:31.655Z,5.07
2019-02-25T09:24:13.253Z,4.43
2019-02-25T09:26:56.097Z,5.07
2019-02-25T09:29:36.497Z,4.87
2019-02-25T09:32:26.642Z,4.63
2019-02-25T09:35:08.818Z,4.20
2019-02-25T09:37:47.656Z,4.53
2019-02-25T09:40:27.732Z,3.50
2019-02-25T09:43:03.389Z,4.07
2019-02-25T09:45:50.410Z,4.97
2019-02-25T09:52:15.266Z,2.93
2019-02-25T09:54:50.179Z,2.80
2019-02-25T09:57:36.787Z,4.17
2019-02-25T10:00:17.075Z,3.57
2019-02-25T10:03:13.965Z,2.40
2019-02-25T10:06:40.396Z,5.07
2019-02-25T10:09:41.857Z,2.10
2019-02-25T10:12:31.434Z,2.43
2019-02-25T10:15:20.250Z,1.93
2019-02-25T10:17:57.390Z,2.17
2019-02-25T10:20:38.597Z,3.37
2019-02-25T10:23:17.971Z,2.50
2019-02-25T10:25:58.770Z,3.53
2019-02-25T10:28:44.958Z,2.83
2019-02-25T10:31:22.760Z,3.43
2019-02-25T10:34:07.683Z,2.00
2019-02-25T10:36:52.390Z,3.90
2019-02-25T10:39:37.735Z,2.83
2019-02-25T10:42:29.359Z,2.90
2019-02-25T10:45:09.000Z,3.87
2019-02-25T10:47:49.077Z,4.37
2019-02-25T10:50:26.665Z,3.93
2019-02-25T10:53:05.427Z,3.23
2019-02-25T10:56:29.187Z,5.80
2019-02-25T10:59:08.234Z,3.43
2019-02-25T11:01:50.731Z,5.03
2019-02-25T11:04:40.988Z,4.87
2019-02-25T11:07:21.017Z,4.63
2019-02-25T11:10:13.980Z,3.83
2019-02-25T11:12:59.856Z,4.43
2019-02-25T11:15:44.003Z,3.10
2019-02-25T11:18:28.448Z,4.07
2019-02-25T11:21:06.151Z,3.23
2019-02-25T11:23:51.681Z,3.73
2019-02-25T11:26:32.843Z,3.53
2019-02-25T11:29:24.354Z,2.70
2019-02-25T11:32:02.071Z,3.10
2019-02-25T11:34:49.777Z,1.90
2019-02-25T11:37:28.065Z,2.20
2019-02-25T11:40:21.823Z,4.47
2019-02-25T11:43:10.688Z,4.10
2019-02-25T11:46:05.531Z,2.57
2019-02-25T11:48:46.079Z,2.13
2019-02-25T11:51:40.804Z,2.67
2019-02-25T11:54:19.573Z,2.53
2019-02-25T11:57:06.597Z,3.20
2019-02-25T12:00:22.411Z,3.77
2019-02-25T12:03:14.088Z,2.03
2019-02-25T12:06:25.812Z,2.37
2019-02-25T12:09:22.436Z,1.40
2019-02-25T12:12:13.859Z,3.27
2019-02-25T12:14:56.518Z,2.37
2019-02-25T12:17:42.562Z,2.30
2019-02-25T12:20:39.455Z,2.63
2019-02-25T12:23:34.442Z,1.70
2019-02-25T12:26:15.136Z,1.83
2019-02-25T12:29:00.367Z,2.07
2019-02-25T12:31:51.011Z,1.57
2019-02-25T12:34:29.483Z,2.67
2019-02-25T12:37:08.626Z,1.90
2019-02-25T12:39:49.055Z,2.87
2019-02-25T12:42:39.024Z,2.27
2019-02-25T12:45:22.248Z,3.43
2019-02-25T12:48:09.058Z,3.20
2019-02-25T12:50:50.142Z,1.93
2019-02-25T12:53:33.670Z,2.10
2019-02-25T12:56:18.882Z,1.20
2019-02-25T12:59:05.010Z,1.40
2019-02-25T13:01:58.570Z,2.93
2019-02-25T13:05:00.966Z,1.10
2019-02-25T13:07:45.108Z,1.30
2019-02-25T13:10:48.321Z,1.10
2019-02-25T13:13:26.055Z,1.33
2019-02-25T13:16:08.985Z,1.33
2019-02-25T13:18:49.349Z,1.50
2019-02-25T13:21:28.984Z,1.53
2019-02-25T13:24:09.922Z,2.03
2019-02-25T13:26:52.645Z,1.50
2019-02-25T13:29:46.361Z,1.53
2019-02-25T13:32:21.801Z,0.83
2019-02-25T13:35:09.937Z,2.17
2019-02-25T13:37:51.583Z,2.53
2019-02-25T13:40:32.739Z,3.00
2019-02-25T13:43:27.521Z,1.33
2019-02-25T13:46:13.861Z,1.70
2019-02-25T13:48:51.920Z,1.50
2019-02-25T13:51:34.260Z,2.30
2019-02-25T13:54:15.322Z,2.30
2019-02-25T13:57:01.087Z,1.60
2019-02-25T13:59:43.286Z,1.67
2019-02-25T14:02:23.042Z,2.27
2019-02-25T14:05:10.805Z,2.57
2019-02-25T14:07:51.332Z,2.53
2019-02-25T14:10:33.017Z,2.80
2019-02-25T14:13:19.635Z,4.77
2019-02-25T14:15:56.159Z,3.27
2019-02-25T14:19:01.773Z,2.47
2019-02-25T14:21:40.193Z,3.77
2019-02-25T14:24:24.201Z,2.60
2019-02-25T14:27:11.768Z,2.07
2019-02-25T14:29:48.775Z,3.17
2019-02-25T14:32:30.045Z,2.17
2019-02-25T14:35:09.910Z,2.00
2019-02-25T14:37:51.166Z,2.23
2019-02-25T14:40:32.506Z,2.30
2019-02-25T14:43:15.081Z,2.03
2019-02-25T14:45:53.612Z,3.23
2019-02-25T14:48:32.345Z,3.73
2019-02-25T14:51:08.791Z,1.73
2019-02-25T14:53:56.507Z,4.10
2019-02-25T14:56:37.460Z,2.07
2019-02-25T14:59:24.873Z,3.43
2019-02-25T15:02:05.996Z,2.10
2019-02-25T15:04:41.796Z,3.60
2019-02-25T15:07:19.913Z,2.60
2019-02-25T15:10:02.495Z,2.17
2019-02-25T15:12:39.848Z,2.50
2019-02-25T15:15:18.306Z,3.23
2019-02-25T15:17:53.601Z,3.17
2019-02-25T15:20:31.977Z,4.90
2019-02-25T15:23:08.044Z,2.83
2019-02-25T15:25:45.423Z,3.30
2019-02-25T15:28:22.241Z,2.10
2019-02-25T15:31:00.092Z,3.23
2019-02-25T15:33:40.410Z,4.30
2019-02-25T15:36:24.354Z,2.40
2019-02-25T15:39:02.250Z,6.30
2019-02-25T15:41:38.506Z,2.50
2019-02-25T15:44:16.826Z,2.67
2019-02-25T15:46:54.085Z,3.67
2019-02-25T15:49:34.135Z,2.80
2019-02-25T15:52:14.653Z,4.37
2019-02-25T15:54:46.865Z,3.93
2019-02-25T15:57:26.478Z,3.23
2019-02-25T16:00:15.297Z,3.53
2019-02-25T16:02:54.481Z,3.00
2019-02-25T16:05:31.893Z,2.90
2019-02-25T16:08:10.558Z,3.57
2019-02-25T16:10:51.148Z,1.97
2019-02-25T16:13:28.771Z,3.57
2019-02-25T16:16:03.530Z,2.37
2019-02-25T16:18:40.462Z,2.70
2019-02-25T16:21:28.714Z,4.87
2019-02-25T16:24:11.363Z,1.70
2019-02-25T16:26:56.273Z,2.13
2019-02-25T16:29:33.619Z,2.20
2019-02-25T16:32:09.122Z,2.33
2019-02-25T16:34:45.819Z,3.27
2019-02-25T16:37:24.935Z,3.83
2019-02-25T16:40:03.196Z,2.63
2019-02-25T16:42:41.403Z,2.03
2019-02-25T16:45:21.653Z,1.97
2019-02-25T16:48:00.614Z,2.03
2019-02-25T16:50:39.207Z,4.83
2019-02-25T16:53:17.830Z,2.07
2019-02-25T16:55:53.689Z,2.20
2019-02-25T16:58:34.075Z,2.47
2019-02-25T17:01:17.233Z,3.10
2019-02-25T17:03:57.475Z,2.30
2019-02-25T17:06:36.920Z,2.27
2019-02-25T17:09:20.925Z,4.17
2019-02-25T17:11:57.962Z,2.30
2019-02-25T17:14:40.003Z,1.97
2019-02-25T17:17:19.349Z,1.57
2019-02-25T17:19:58.385Z,1.73
2019-02-25T17:22:36.862Z,2.10
2019-02-25T17:25:12.419Z,1.53
2019-02-25T17:27:49.637Z,2.73
2019-02-25T17:30:24.978Z,1.27
2019-02-25T17:33:03.403Z,1.10
2019-02-25T17:35:38.401Z,2.43
2019-02-25T17:38:18.098Z,1.60
2019-02-25T17:40:56.207Z,1.60
2019-02-25T17:43:36.371Z,2.07
2019-02-25T17:46:11.641Z,1.90
2019-02-25T17:48:48.209Z,4.17
2019-02-25T17:51:24.886Z,2.33
2019-02-25T17:54:02.805Z,2.10
2019-02-25T17:56:37.407Z,1.83
2019-02-25T17:59:24.797Z,1.73
2019-02-25T18:02:13.831Z,1.40
2019-02-25T18:04:53.261Z,2.63
2019-02-25T18:07:31.716Z,2.53
2019-02-25T18:10:13.803Z,3.37
2019-02-25T18:12:50.778Z,1.47
2019-02-25T18:15:32.917Z,1.90
2019-02-25T18:18:12.484Z,2.07
2019-02-25T18:20:47.864Z,2.20
2019-02-25T18:23:25.603Z,5.20
2019-02-25T18:26:00.913Z,1.40
2019-02-25T18:28:39.677Z,1.40
2019-02-25T18:31:17.080Z,1.50
2019-02-25T18:33:55.948Z,1.97
2019-02-25T18:36:33.182Z,2.90
2019-02-25T18:39:10.113Z,2.07
2019-02-25T18:41:48.457Z,3.63
2019-02-25T18:44:28.631Z,1.47
2019-02-25T18:47:02.956Z,2.70
2019-02-25T18:49:43.567Z,1.23
2019-02-25T18:52:25.935Z,2.40
2019-02-25T18:55:02.826Z,2.00
2019-02-25T18:57:43.722Z,2.23
2019-02-25T19:00:32.712Z,2.43
2019-02-25T19:03:10.581Z,1.30
2019-02-25T19:05:52.867Z,2.23
2019-02-25T19:08:30.609Z,1.07
2019-02-25T19:11:07.087Z,4.03
2019-02-25T19:13:45.945Z,1.60
2019-02-25T19:16:22.311Z,1.43
2019-02-25T19:19:04.054Z,1.37
2019-02-25T19:21:38.556Z,2.57
2019-02-25T19:24:19.210Z,1.37
2019-02-25T19:26:56.509Z,1.30
2019-02-25T19:29:40.375Z,1.00
2019-02-25T19:32:20.974Z,1.30
2019-02-25T19:35:04.728Z,0.93
2019-02-25T19:37:42.178Z,6.67
2019-02-25T19:40:19.422Z,2.73
2019-02-25T19:42:56.796Z,1.00
2019-02-25T19:45:31.458Z,0.80
2019-02-25T19:48:08.540Z,5.30
2019-02-25T19:50:50.935Z,1.17
2019-02-25T19:53:22.116Z,1.77
2019-02-25T19:55:56.927Z,1.47
2019-02-25T19:58:33.650Z,2.13
2019-02-25T20:01:12.757Z,2.27
2019-02-25T20:03:51.924Z,0.60
2019-02-25T20:06:28.044Z,1.73
2019-02-25T20:09:04.475Z,0.70
2019-02-25T20:11:45.004Z,1.07
2019-02-25T20:14:20.708Z,1.37
2019-02-25T20:16:56.756Z,2.13
2019-02-25T20:19:33.127Z,1.23
2019-02-25T20:22:16.778Z,1.27
2019-02-25T20:24:55.035Z,1.27
2019-02-25T20:27:30.430Z,1.70
2019-02-25T20:30:09.916Z,1.33
2019-02-25T20:32:52.124Z,0.77
2019-02-25T20:35:33.229Z,4.40
2019-02-25T20:38:13.793Z,0.67
2019-02-25T20:40:53.093Z,0.83
2019-02-25T20:43:37.219Z,2.17
2019-02-25T20:46:14.719Z,2.20
2019-02-25T20:48:55.460Z,1.10
2019-02-25T20:51:33.631Z,1.30
2019-02-25T20:54:15.709Z,0.70
2019-02-25T20:56:51.113Z,1.40
2019-02-25T20:59:28.210Z,0.70
2019-02-25T21:02:13.734Z,0.87
2019-02-25T21:04:49.745Z,1.13
2019-02-25T21:07:25.779Z,0.93
2019-02-25T21:10:04.039Z,0.57
2019-02-25T21:12:43.225Z,1.70
2019-02-25T21:15:22.145Z,1.97
2019-02-25T21:17:59.969Z,1.70
2019-02-25T21:20:39.529Z,0.93
2019-02-25T21:23:35.772Z,1.63
2019-02-25T21:26:14.387Z,4.63
2019-02-25T21:28:55.988Z,1.73
2019-02-25T21:31:33.336Z,1.20
2019-02-25T21:34:10.185Z,1.73
2019-02-25T21:36:47.937Z,1.07
2019-02-25T21:39:44.673Z,0.90
2019-02-25T21:42:28.622Z,0.70
2019-02-25T21:45:08.307Z,0.80
2019-02-25T21:47:50.045Z,2.10
2019-02-25T21:50:33.522Z,0.90
2019-02-25T21:53:18.834Z,1.53
2019-02-25T21:55:59.197Z,3.20
2019-02-25T21:58:46.637Z,0.80
2019-02-25T22:01:24.575Z,2.07
2019-02-25T22:04:11.205Z,1.83
2019-02-25T22:09:59.445Z,1.60
2019-02-25T22:12:44.312Z,2.43
2019-02-25T22:15:27.622Z,2.07
2019-02-25T22:18:13.585Z,1.77
2019-02-25T22:20:56.813Z,4.57
2019-02-25T22:23:35.471Z,1.07
2019-02-25T22:26:16.899Z,1.13
2019-02-25T22:29:01.808Z,2.90
2019-02-25T22:31:39.129Z,0.93
2019-02-25T22:34:32.259Z,3.30
2019-02-25T22:37:16.662Z,2.00
2019-02-25T22:39:52.611Z,2.50
2019-02-25T22:42:38.649Z,2.87
2019-02-25T22:45:20.228Z,2.33
2019-02-25T22:48:11.610Z,3.17
2019-02-25T22:50:43.755Z,1.13
2019-02-25T22:53:20.183Z,1.40
2019-02-25T22:55:57.205Z,1.27
2019-02-25T22:58:42.982Z,2.70
2019-02-25T23:01:23.942Z,2.03
2019-02-25T23:04:11.135Z,1.83
2019-02-25T23:06:46.394Z,2.30
2019-02-25T23:09:54.288Z,2.37
2019-02-25T23:12:31.324Z,5.40
2019-02-25T23:15:11.259Z,2.10
2019-02-25T23:17:48.957Z,1.47
2019-02-25T23:20:37.147Z,1.90
2019-02-25T23:23:28.678Z,2.43
2019-02-25T23:26:10.325Z,3.17
2019-02-25T23:28:48.931Z,2.30
2019-02-25T23:31:29.945Z,0.80
2019-02-25T23:34:10.217Z,2.43
2019-02-25T23:36:47.122Z,2.60
2019-02-25T23:39:32.036Z,2.93
2019-02-25T23:42:11.353Z,1.33
2019-02-25T23:44:45.407Z,1.13
2019-02-25T23:47:26.865Z,2.67
2019-02-25T23:50:04.046Z,4.27
2019-02-25T23:52:45.667Z,2.30
2019-02-25T23:55:29.901Z,1.43
2019-02-25T23:58:12.498Z,1.47
